Time;durP1;ratioP1;P1;durP2;ratioP2;P2;SDS_P1;SDS_P2;PMS_P1;PMS_P2;Temp;Humidity;BMP_temperature;BMP_pressure;BME280_temperature;BME280_humidity;BME280_pressure;Samples;Min_cycle;Max_cycle;Signal;HPM_P1;HPM_P2
2023/08/18 00:00:16;;;;;;;11.83;4.30;;;24.60;75.90;;;25.10;50.82;95018.22;5075463;28;20525;-59
2023/08/18 00:02:43;;;;;;;7.83;3.83;;;24.50;75.80;;;25.06;51.31;95029.44;5074522;28;20474;-58
2023/08/18 00:05:10;;;;;;;4.83;4.43;;;24.50;76.60;;;25.03;51.60;95013.75;5074904;28;20457;-60
2023/08/18 00:07:39;;;;;;;6.27;4.30;;;24.50;76.10;;;25.03;51.19;95024.50;5072797;28;20982;-58
2023/08/18 00:10:08;;;;;;;4.87;4.03;;;24.40;76.10;;;25.00;51.58;95011.53;5073247;28;20484;-58
2023/08/18 00:12:35;;;;;;;4.67;4.20;;;24.40;76.80;;;25.00;50.59;95019.63;5072801;28;20478;-58
2023/08/18 00:15:05;;;;;;;4.43;4.00;;;24.40;76.10;;;24.99;50.76;95019.84;5069776;28;20507;-56
2023/08/18 00:17:32;;;;;;;4.60;3.57;;;24.40;76.20;;;24.94;51.44;95017.00;5073465;28;20449;-58
2023/08/18 00:19:59;;;;;;;4.73;4.10;;;24.40;76.30;;;24.92;51.57;95019.09;5070165;28;20541;-58
2023/08/18 00:22:27;;;;;;;7.13;3.80;;;24.30;76.20;;;24.87;51.06;95012.50;5069625;28;20496;-57
2023/08/18 00:24:55;;;;;;;5.43;4.10;;;24.30;76.30;;;24.86;51.54;95012.72;5075330;28;20451;-59
2023/08/18 00:27:23;;;;;;;10.67;4.00;;;24.30;76.30;;;24.85;51.45;95000.34;5078458;28;20519;-58
2023/08/18 00:29:50;;;;;;;6.67;4.17;;;24.30;76.40;;;24.83;50.99;95007.81;5073116;28;20486;-56
2023/08/18 00:32:19;;;;;;;6.20;3.73;;;24.30;76.40;;;24.81;51.63;94999.16;5075771;28;20491;-58
2023/08/18 00:34:46;;;;;;;4.30;4.00;;;24.20;76.40;;;24.78;51.75;94996.91;5071540;28;20469;-60
2023/08/18 00:37:15;;;;;;;8.40;3.40;;;24.20;76.50;;;24.77;50.95;95001.47;5074806;28;20461;-58
2023/08/18 00:39:41;;;;;;;3.73;3.43;;;24.20;77.30;;;24.77;51.46;95006.84;5073152;28;20556;-59
2023/08/18 00:42:08;;;;;;;7.63;4.17;;;24.20;76.50;;;24.77;51.46;94997.94;5073152;28;20453;-61
2023/08/18 00:44:36;;;;;;;4.30;3.93;;;24.20;76.50;;;24.78;51.62;95010.34;5071464;28;20478;-59
2023/08/18 00:47:03;;;;;;;5.63;3.47;;;24.20;76.50;;;24.78;50.74;95000.41;5072172;28;20457;-59
2023/08/18 00:49:32;;;;;;;7.93;4.10;;;24.20;76.50;;;24.81;51.36;95002.66;5076228;28;20488;-58
2023/08/18 00:51:59;;;;;;;8.00;5.10;;;24.20;76.50;;;24.83;51.13;95003.25;5071665;28;20443;-59
2023/08/18 00:54:27;;;;;;;5.80;3.70;;;24.20;76.60;;;24.86;50.88;95007.34;5072146;28;20996;-57
2023/08/18 00:56:54;;;;;;;10.63;4.40;;;24.30;76.80;;;24.87;51.21;94999.06;5077447;28;20477;-58
2023/08/18 00:59:21;;;;;;;5.63;3.80;;;24.30;76.70;;;24.86;51.20;95008.19;5069817;28;20478;-58
2023/08/18 01:01:48;;;;;;;11.57;3.97;;;24.30;76.80;;;24.86;50.94;95002.81;5080520;28;20450;-60
2023/08/18 01:04:16;;;;;;;4.70;4.30;;;24.30;76.80;;;24.85;51.32;95008.41;5070058;28;20482;-59
2023/08/18 01:06:44;;;;;;;15.63;3.90;;;24.30;77.00;;;24.83;51.10;95013.19;5075902;28;20453;-59
2023/08/18 01:09:12;;;;;;;5.47;4.43;;;24.20;77.10;;;24.81;51.85;95013.41;5070263;28;20493;-58
2023/08/18 01:11:48;;;;;;;5.87;3.93;;;24.20;77.30;;;24.80;51.52;95013.63;5074004;28;20830;-59
2023/08/18 01:14:27;;;;;;;6.20;4.57;;;24.20;77.20;;;24.76;51.35;95007.09;5074632;28;20466;-59
2023/08/18 01:17:00;;;;;;;4.27;3.87;;;24.20;77.30;;;24.74;51.45;95006.47;5073036;28;20462;-57
2023/08/18 01:19:27;;;;;;;5.17;4.10;;;24.10;77.60;;;24.72;52.07;95008.56;5075282;28;20552;-58
2023/08/18 01:21:56;;;;;;;4.67;3.90;;;24.10;77.60;;;24.68;52.09;95009.03;5068385;28;20474;-58
2023/08/18 01:24:26;;;;;;;4.30;3.90;;;24.10;77.60;;;24.66;51.96;95010.28;5075655;28;20567;-59
2023/08/18 01:26:53;;;;;;;6.77;4.30;;;24.00;77.60;;;24.62;51.91;95004.53;5074398;28;20450;-58
2023/08/18 01:29:21;;;;;;;5.67;3.80;;;24.00;77.90;;;24.60;52.29;95012.00;5075746;28;20493;-58
2023/08/18 01:31:49;;;;;;;7.57;4.40;;;24.00;78.10;;;24.59;51.91;95012.25;5071834;28;20867;-59
2023/08/18 01:34:17;;;;;;;10.40;4.73;;;24.00;78.20;;;24.58;52.46;95011.41;5072555;28;20580;-59
2023/08/18 01:36:45;;;;;;;8.07;4.20;;;24.00;78.40;;;24.57;52.02;95020.53;5075049;28;20962;-59
2023/08/18 01:39:12;;;;;;;9.67;5.30;;;24.00;78.60;;;24.55;51.96;95017.19;5071815;28;20481;-59
2023/08/18 01:41:41;;;;;;;9.10;4.43;;;23.90;78.50;;;24.55;52.61;95011.00;5071125;28;20451;-58
2023/08/18 01:44:08;;;;;;;6.50;4.57;;;23.90;78.70;;;24.51;52.03;95010.63;5072127;28;20474;-58
2023/08/18 01:46:36;;;;;;;8.50;4.17;;;23.90;78.70;;;24.49;52.80;95010.03;5070613;28;20512;-59
2023/08/18 01:49:03;;;;;;;6.43;4.10;;;23.90;80.10;;;24.46;52.37;95013.16;5070336;28;20481;-59
2023/08/18 01:51:31;;;;;;;4.43;3.70;;;23.90;79.10;;;24.42;52.76;95012.78;5070876;28;20454;-58
2023/08/18 01:53:58;;;;;;;4.77;4.30;;;23.80;79.20;;;24.40;52.99;95019.41;5074007;28;20554;-57
2023/08/18 01:56:25;;;;;;;10.57;4.30;;;23.80;79.40;;;24.38;52.47;95013.44;5071192;28;20450;-59
2023/08/18 01:58:54;;;;;;;7.03;4.33;;;23.80;79.50;;;24.36;52.28;95007.50;5075140;28;20486;-58
2023/08/18 02:01:21;;;;;;;4.77;4.23;;;23.80;79.50;;;24.33;53.46;95009.56;5068663;28;20536;-58
2023/08/18 02:03:48;;;;;;;6.43;4.40;;;23.80;80.30;;;24.28;53.24;95001.34;5074511;28;20473;-58
2023/08/18 02:06:16;;;;;;;7.43;3.97;;;23.70;79.80;;;24.23;53.33;95003.03;5070146;28;20836;-57
2023/08/18 02:08:43;;;;;;;5.10;4.70;;;23.70;80.00;;;24.19;53.31;94994.63;5073998;28;20534;-58
2023/08/18 02:11:10;;;;;;;5.27;4.77;;;23.60;79.80;;;24.16;53.68;95003.94;5069330;28;20837;-58
2023/08/18 02:13:38;;;;;;;7.53;4.70;;;23.60;80.20;;;24.15;53.57;94998.78;5073986;28;20474;-57
2023/08/18 02:16:06;;;;;;;6.20;4.73;;;23.60;80.20;;;24.12;52.95;95002.75;5069724;28;20458;-58
2023/08/18 02:18:34;;;;;;;8.87;5.10;;;23.60;80.20;;;24.13;53.19;94995.50;5074365;28;20470;-57
2023/08/18 02:21:02;;;;;;;5.23;4.80;;;23.60;80.40;;;24.14;53.58;94994.47;5071278;28;20461;-58
2023/08/18 02:23:29;;;;;;;9.20;4.57;;;23.50;80.50;;;24.17;52.97;94994.03;5073847;28;20533;-57
2023/08/18 02:26:01;;;;;;;10.93;5.30;;;23.60;80.80;;;24.17;53.50;94994.03;5069866;28;21379;-58
2023/08/18 02:28:28;;;;;;;5.33;4.80;;;23.60;80.70;;;24.16;53.08;94989.69;5073698;28;20494;-57
2023/08/18 02:31:02;;;;;;;9.47;4.30;;;23.60;80.80;;;24.15;53.75;94991.56;5071775;28;20490;-59
2023/08/18 02:33:30;;;;;;;11.93;4.90;;;23.50;81.30;;;24.12;53.89;94985.78;5069309;28;20465;-60
2023/08/18 02:35:58;;;;;;;5.30;4.50;;;23.50;81.30;;;24.10;53.44;94994.06;5075235;28;20454;-59
2023/08/18 02:38:26;;;;;;;7.10;4.67;;;23.50;81.30;;;24.05;53.86;94983.16;5067447;28;21049;-59
2023/08/18 02:40:53;;;;;;;4.50;4.10;;;23.50;81.80;;;24.04;53.65;94991.44;5069455;28;20455;-57
2023/08/18 02:43:21;;;;;;;8.67;4.93;;;23.40;82.00;;;24.01;54.48;94990.03;5069802;28;20479;-58
2023/08/18 02:45:48;;;;;;;7.87;4.50;;;23.40;82.30;;;23.99;54.13;94990.22;5075745;28;20928;-58
2023/08/18 02:48:16;;;;;;;12.03;4.93;;;23.40;82.70;;;23.98;54.78;94985.09;5071970;28;20628;-58
2023/08/18 02:50:45;;;;;;;6.43;4.70;;;23.40;82.90;;;23.97;54.77;94994.22;5071445;28;20794;-59
2023/08/18 02:53:13;;;;;;;9.63;4.97;;;23.40;83.20;;;23.95;54.14;94989.06;5073690;28;20466;-57
2023/08/18 02:55:40;;;;;;;4.90;4.37;;;23.30;83.30;;;23.93;55.08;94995.69;5070042;28;20898;-57
2023/08/18 02:58:07;;;;;;;5.80;3.70;;;23.30;83.30;;;23.91;54.33;94993.22;5071259;28;20990;-60
2023/08/18 03:00:36;;;;;;;5.30;4.80;;;23.30;83.30;;;23.88;54.87;94985.59;5073676;28;20461;-59
2023/08/18 03:03:03;;;;;;;11.80;4.90;;;23.30;84.00;;;23.85;55.33;94991.41;5072261;28;20470;-59
2023/08/18 03:05:30;;;;;;;8.10;4.97;;;23.30;84.10;;;23.83;54.96;94988.09;5077142;28;20462;-59
2023/08/18 03:07:59;;;;;;;7.53;4.93;;;23.20;84.50;;;23.80;55.06;94985.84;5069202;28;20489;-60
2023/08/18 03:10:26;;;;;;;6.73;4.80;;;23.20;84.60;;;23.79;54.89;94989.56;5078312;28;20485;-58
2023/08/18 03:12:53;;;;;;;7.00;5.07;;;23.20;85.00;;;23.77;54.91;94995.16;5069172;28;20858;-58
2023/08/18 03:15:21;;;;;;;12.03;5.10;;;23.20;85.20;;;23.75;55.52;94989.19;5070605;28;20450;-58
2023/08/18 03:17:49;;;;;;;7.40;5.40;;;23.20;85.30;;;23.75;55.70;94999.09;5074452;28;20477;-59
2023/08/18 03:20:16;;;;;;;8.60;5.10;;;23.20;85.50;;;23.72;54.99;94996.84;5069421;28;20546;-60
2023/08/18 03:22:43;;;;;;;7.83;4.53;;;23.20;85.70;;;23.72;55.69;94996.84;5066648;28;20783;-59
2023/08/18 03:25:12;;;;;;;5.13;4.20;;;23.10;86.00;;;23.70;55.68;94999.78;5068977;28;20739;-59
2023/08/18 03:27:40;;;;;;;6.40;5.23;;;23.10;86.20;;;23.70;55.99;95009.69;5074790;28;20445;-61
2023/08/18 03:30:09;;;;;;;11.53;5.10;;;23.10;86.10;;;23.67;56.16;95005.59;5068017;28;20481;-59
2023/08/18 03:32:36;;;;;;;8.50;4.70;;;23.10;86.80;;;23.65;56.23;95004.97;5069568;28;21037;-61
2023/08/18 03:35:04;;;;;;;10.57;6.20;;;23.10;86.80;;;23.61;55.73;95006.47;5069945;28;20511;-58
2023/08/18 03:37:32;;;;;;;6.73;5.80;;;23.00;87.10;;;23.59;56.18;94987.88;5071528;28;21139;-58
2023/08/18 03:39:59;;;;;;;5.30;4.93;;;23.00;87.20;;;23.58;56.20;95001.53;5071987;28;20447;-59
2023/08/18 03:42:27;;;;;;;9.70;5.87;;;23.00;87.50;;;23.54;56.37;94995.75;5070584;28;20460;-60
2023/08/18 03:44:55;;;;;;;9.83;6.10;;;23.00;87.70;;;23.55;56.70;95002.78;5068458;28;20474;-58
2023/08/18 03:47:22;;;;;;;6.53;5.90;;;23.00;88.10;;;23.54;55.92;94998.44;5067196;28;20887;-60
2023/08/18 03:49:49;;;;;;;8.30;4.60;;;23.00;88.40;;;23.56;56.13;95006.25;5072941;28;20494;-59
2023/08/18 03:52:16;;;;;;;7.90;4.47;;;23.00;88.40;;;23.55;56.50;95010.81;5069802;28;20446;-60
2023/08/18 03:54:44;;;;;;;5.40;4.87;;;23.00;88.70;;;23.57;56.10;95011.41;5067680;28;20470;-59
2023/08/18 03:57:11;;;;;;;13.63;5.93;;;23.00;88.90;;;23.56;56.40;95003.59;5074082;28;20457;-58
2023/08/18 03:59:40;;;;;;;12.20;5.17;;;23.00;88.80;;;23.51;55.96;95009.59;5069524;28;20482;-57
2023/08/18 04:02:07;;;;;;;21.20;8.10;;;23.00;88.70;;;23.51;56.77;95006.09;5070908;28;21069;-58
2023/08/18 04:04:34;;;;;;;19.73;8.27;;;22.90;89.20;;;23.53;56.22;95009.38;5066775;28;20471;-58
2023/08/18 04:07:01;;;;;;;17.40;8.93;;;22.90;89.30;;;23.55;56.95;95008.13;5074730;28;20604;-59
2023/08/18 04:09:29;;;;;;;22.77;10.10;;;23.00;89.40;;;23.58;56.25;95006.91;5065994;28;20551;-58
2023/08/18 04:11:56;;;;;;;10.07;6.33;;;23.00;90.00;;;23.58;56.67;95015.75;5070794;28;20462;-57
2023/08/18 04:14:23;;;;;;;8.70;5.47;;;23.00;89.30;;;23.55;56.44;95024.25;5072486;28;20483;-58
2023/08/18 04:16:52;;;;;;;7.83;5.80;;;23.00;89.40;;;23.55;55.98;95020.75;5070040;28;20504;-59
2023/08/18 04:19:19;;;;;;;8.90;6.10;;;23.00;89.30;;;23.54;56.10;95014.53;5073899;28;20970;-59
2023/08/18 04:21:46;;;;;;;8.13;5.17;;;23.00;89.70;;;23.55;56.57;95013.50;5064962;28;20451;-58
2023/08/18 04:24:13;;;;;;;9.73;5.77;;;23.00;89.50;;;23.57;57.03;95021.34;5070311;28;20528;-57
2023/08/18 04:26:41;;;;;;;11.20;5.57;;;23.00;90.00;;;23.60;56.56;95016.34;5070597;28;21130;-58
2023/08/18 04:29:08;;;;;;;8.23;6.23;;;23.00;90.10;;;23.67;56.55;95021.69;5073923;28;21025;-59
2023/08/18 04:31:35;;;;;;;10.73;6.47;;;23.10;90.40;;;23.73;56.66;95020.78;5067429;28;20491;-59
2023/08/18 04:34:04;;;;;;;14.70;6.20;;;23.10;90.30;;;23.79;56.87;95019.09;5068349;28;20816;-58
2023/08/18 04:36:32;;;;;;;12.73;6.47;;;23.20;90.40;;;23.85;56.78;95022.81;5071901;28;20450;-59
2023/08/18 04:39:00;;;;;;;9.40;6.13;;;23.20;90.50;;;23.88;55.97;95022.41;5075757;28;20474;-57
2023/08/18 04:41:27;;;;;;;9.50;6.20;;;23.30;90.30;;;23.92;56.76;95023.56;5066560;28;20465;-60
2023/08/18 04:43:54;;;;;;;19.87;6.47;;;23.30;90.40;;;23.93;56.66;95019.84;5074374;28;20478;-58
2023/08/18 04:46:21;;;;;;;10.10;6.00;;;23.30;90.60;;;23.94;56.15;95022.31;5072972;28;20937;-58
2023/08/18 04:48:48;;;;;;;11.97;5.80;;;23.40;90.30;;;23.97;56.81;95024.56;5072565;28;20486;-60
2023/08/18 04:51:17;;;;;;;10.47;6.40;;;23.40;90.60;;;23.99;56.12;95035.09;5076155;28;20489;-58
2023/08/18 04:53:44;;;;;;;15.20;7.13;;;23.40;90.50;;;24.01;56.24;95033.00;5067910;28;20475;-60
2023/08/18 04:56:11;;;;;;;20.00;6.80;;;23.40;90.60;;;24.05;56.21;95033.41;5075356;28;20462;-60
2023/08/18 04:58:39;;;;;;;10.93;6.00;;;23.50;90.70;;;24.08;56.17;95041.03;5072091;28;20481;-57
2023/08/18 05:01:06;;;;;;;8.83;5.70;;;23.50;90.90;;;24.11;56.86;95040.59;5075401;28;20941;-60
2023/08/18 05:03:33;;;;;;;18.83;7.00;;;23.50;91.00;;;24.12;56.18;95043.06;5070300;28;20723;-59
2023/08/18 05:06:03;;;;;;;8.37;6.53;;;23.50;90.80;;;24.16;56.01;95041.56;5071224;28;20967;-58
2023/08/18 05:08:32;;;;;;;16.00;7.70;;;23.60;90.80;;;24.19;56.11;95040.31;5071239;28;20465;-58
2023/08/18 05:11:04;;;;;;;20.53;7.30;;;23.60;90.80;;;24.23;56.16;95041.53;5068268;28;20522;-60
2023/08/18 05:13:31;;;;;;;12.40;6.00;;;23.60;90.80;;;24.27;56.73;95045.38;5075697;28;20530;-59
2023/08/18 05:16:00;;;;;;;13.67;6.77;;;23.70;90.90;;;24.29;56.15;95040.63;5071585;28;20519;-59
2023/08/18 05:18:28;;;;;;;16.43;6.47;;;23.70;91.00;;;24.33;56.15;95043.69;5073795;28;20473;-59
2023/08/18 05:20:56;;;;;;;14.53;6.33;;;23.70;90.90;;;24.36;56.74;95050.50;5070634;28;20455;-60
2023/08/18 05:23:24;;;;;;;9.50;5.70;;;23.80;90.90;;;24.41;56.13;95047.97;5071672;28;20979;-60
2023/08/18 05:25:54;;;;;;;6.60;6.00;;;23.80;90.80;;;24.47;55.97;95049.75;5072137;28;20453;-59
2023/08/18 05:28:22;;;;;;;7.10;5.20;;;23.90;90.60;;;24.52;56.02;95047.22;5077542;28;21215;-60
2023/08/18 05:30:49;;;;;;;9.50;6.20;;;23.90;90.50;;;24.61;55.26;95045.09;5072249;28;20946;-66
2023/08/18 05:33:17;;;;;;;8.27;4.93;;;24.00;90.30;;;24.73;55.55;95045.19;5068185;28;20505;-59
2023/08/18 05:35:45;;;;;;;6.27;4.80;;;24.00;90.10;;;24.86;54.90;95053.09;5074523;28;20450;-57
2023/08/18 05:38:12;;;;;;;7.43;5.03;;;24.20;90.20;;;25.03;55.25;95059.50;5071997;28;20513;-59
2023/08/18 05:40:41;;;;;;;10.30;4.90;;;24.30;90.00;;;25.23;54.57;95061.13;5071930;28;20970;-60
2023/08/18 05:43:10;;;;;;;24.53;5.67;;;24.50;89.60;;;25.44;54.34;95057.19;5067978;28;20872;-59
2023/08/18 05:45:37;;;;;;;6.23;5.63;;;24.70;89.00;;;25.65;53.48;95055.00;5070303;28;20530;-58
2023/08/18 05:48:05;;;;;;;6.40;4.40;;;24.90;88.30;;;25.87;53.36;95053.44;5074486;28;20511;-59
2023/08/18 05:50:33;;;;;;;9.73;6.60;;;25.10;87.30;;;26.02;52.45;95053.00;5074004;28;20489;-60
2023/08/18 05:53:02;;;;;;;9.70;5.10;;;25.30;85.90;;;26.10;51.90;95052.69;5071007;28;20539;-59
2023/08/18 05:55:30;;;;;;;6.40;5.20;;;25.40;84.60;;;26.11;51.67;95043.53;5072154;28;20612;-61
2023/08/18 05:57:59;;;;;;;7.47;4.67;;;25.50;83.90;;;26.18;51.66;95046.13;5069755;28;21079;-59
2023/08/18 06:00:28;;;;;;;8.43;4.97;;;25.60;83.40;;;26.28;51.56;95046.34;5071929;28;20449;-59
2023/08/18 06:02:56;;;;;;;5.50;5.00;;;25.60;83.10;;;26.41;51.13;95039.91;5068178;28;20470;-60
2023/08/18 06:05:26;;;;;;;5.37;4.80;;;25.70;82.90;;;26.59;50.67;95047.06;5068439;28;20445;-59
2023/08/18 06:07:53;;;;;;;10.27;4.87;;;25.90;82.60;;;26.79;50.25;95040.50;5069229;28;20528;-58
2023/08/18 06:10:20;;;;;;;9.67;4.80;;;26.10;81.30;;;26.99;50.47;95042.81;5076454;28;20572;-57
2023/08/18 06:12:48;;;;;;;18.23;4.80;;;26.30;81.10;;;27.17;49.81;95047.19;5067866;28;20557;-60
2023/08/18 06:15:16;;;;;;;15.40;5.73;;;26.50;80.30;;;27.39;49.49;95047.41;5072498;28;20453;-58
2023/08/18 06:17:45;;;;;;;11.33;5.50;;;26.60;79.80;;;27.62;48.78;95048.34;5067815;28;20482;-58
2023/08/18 06:20:13;;;;;;;11.17;5.00;;;26.90;78.80;;;27.76;48.67;95038.88;5073345;28;20477;-60
2023/08/18 06:22:40;;;;;;;5.07;4.20;;;27.00;77.70;;;27.91;47.99;95047.25;5068851;28;20477;-59
2023/08/18 06:25:09;;;;;;;8.03;4.80;;;27.10;77.30;;;28.13;47.92;95049.25;5070325;28;20523;-59
2023/08/18 06:27:36;;;;;;;8.53;4.67;;;27.40;76.80;;;28.33;47.04;95058.75;5078431;28;20481;-59
2023/08/18 06:30:04;;;;;;;7.67;4.70;;;27.50;75.70;;;28.47;47.00;95043.00;5068528;28;20519;-58
2023/08/18 06:32:31;;;;;;;22.97;4.30;;;27.70;75.00;;;28.63;47.13;95047.63;5069841;28;20472;-60
2023/08/18 06:35:00;;;;;;;9.63;4.77;;;27.90;74.30;;;28.80;46.66;95053.00;5073837;28;20462;-59
2023/08/18 06:37:27;;;;;;;5.23;4.50;;;28.00;74.30;;;28.96;46.21;95060.22;5069612;28;20694;-58
2023/08/18 06:39:54;;;;;;;8.30;4.53;;;28.20;73.10;;;29.14;46.18;95055.56;5069693;28;20812;-58
2023/08/18 06:42:23;;;;;;;9.13;5.47;;;28.30;72.60;;;29.33;45.83;95054.22;5069768;28;20780;-59
2023/08/18 06:44:50;;;;;;;15.97;4.90;;;28.50;71.70;;;29.55;44.86;95056.09;5070887;28;20459;-59
2023/08/18 06:47:17;;;;;;;9.20;4.20;;;28.70;71.20;;;29.77;44.23;95055.22;5075186;28;20468;-57
2023/08/18 06:49:44;;;;;;;9.97;4.30;;;28.90;70.50;;;29.87;44.08;95060.78;5070633;28;21045;-58
2023/08/18 06:52:13;;;;;;;17.43;5.07;;;29.10;69.30;;;29.98;43.57;95057.06;5071939;28;20953;-58
2023/08/18 06:54:40;;;;;;;6.03;4.53;;;29.20;68.60;;;30.10;43.35;95061.50;5068479;28;20696;-60
2023/08/18 06:57:08;;;;;;;5.23;4.63;;;29.30;68.60;;;30.21;42.56;95063.25;5071944;28;20210;-58
2023/08/18 06:59:35;;;;;;;4.33;3.93;;;29.40;67.90;;;30.28;42.45;95050.25;5066688;28;20227;-59
2023/08/18 07:02:03;;;;;;;10.93;4.83;;;29.50;66.70;;;30.44;43.25;95058.56;5070429;28;20618;-59
2023/08/18 07:04:30;;;;;;;8.30;3.80;;;29.60;66.90;;;30.61;42.14;95059.19;5073342;28;20216;-59
2023/08/18 07:06:57;;;;;;;9.33;3.87;;;29.80;66.10;;;30.75;42.31;95054.13;5068633;28;20208;-59
2023/08/18 07:09:26;;;;;;;7.83;3.83;;;29.90;66.20;;;30.93;41.53;95044.72;5069794;28;20315;-58
2023/08/18 07:11:53;;;;;;;11.23;4.53;;;30.10;65.00;;;31.08;41.77;95044.84;5073088;28;20220;-60
2023/08/18 07:14:21;;;;;;;7.17;4.37;;;30.30;64.50;;;31.14;41.37;95047.56;5069492;28;20293;-59
2023/08/18 07:16:49;;;;;;;9.67;3.43;;;30.30;63.60;;;31.23;40.73;95043.25;5076647;28;20203;-58
2023/08/18 07:19:16;;;;;;;5.70;3.70;;;30.50;62.90;;;31.31;40.37;95036.50;5070125;28;20220;-58
2023/08/18 07:21:43;;;;;;;5.40;3.87;;;30.50;62.40;;;31.43;40.41;95046.06;5068499;28;20207;-59
2023/08/18 07:24:11;;;;;;;9.10;3.90;;;30.60;62.30;;;31.63;40.27;95044.50;5074565;28;20699;-57
2023/08/18 07:26:39;;;;;;;6.40;4.10;;;30.80;61.90;;;31.81;39.50;95044.00;5070954;28;20261;-60
2023/08/18 07:29:06;;;;;;;8.43;3.70;;;30.90;61.50;;;32.02;39.46;95044.00;5072869;28;20231;-60
2023/08/18 07:31:34;;;;;;;6.63;4.10;;;31.10;60.80;;;32.25;39.05;95045.41;5068870;28;20258;-60
2023/08/18 07:34:01;;;;;;;10.13;4.00;;;31.40;59.90;;;32.47;39.12;95039.69;5069386;28;20751;-59
2023/08/18 07:36:29;;;;;;;8.35;4.38;;;31.60;59.70;;;32.72;38.45;95035.31;5068658;28;20200;-59
2023/08/18 07:38:56;;;;;;;5.97;4.43;;;31.80;59.30;;;32.91;37.83;95045.63;5073092;28;20612;-60
2023/08/18 07:41:23;;;;;;;4.32;4.03;;;32.00;58.40;;;33.02;37.82;95042.56;5067028;28;20442;-59
2023/08/18 07:43:52;;;;;;;6.57;4.20;;;32.20;57.90;;;33.07;37.45;95041.75;5071101;28;20224;-57
2023/08/18 07:46:19;;;;;;;8.05;3.50;;;32.20;57.60;;;33.02;37.05;95047.22;5066524;28;20234;-57
2023/08/18 07:48:46;;;;;;;6.72;3.63;;;32.20;57.10;;;32.99;37.11;95047.78;5070986;28;20307;-59
2023/08/18 07:51:13;;;;;;;8.85;3.55;;;32.30;56.80;;;32.93;36.96;95036.06;5072091;28;20223;-58
2023/08/18 07:53:41;;;;;;;6.53;3.75;;;32.20;56.90;;;32.99;36.92;95045.03;5070180;28;20219;-58
2023/08/18 07:56:09;;;;;;;5.68;3.42;;;32.20;56.60;;;33.11;36.93;95045.53;5072376;28;20223;-58
2023/08/18 07:58:36;;;;;;;6.88;3.85;;;32.30;56.60;;;33.29;36.73;95037.88;5071752;28;20212;-59
2023/08/18 08:01:06;;;;;;;14.30;3.60;;;32.50;56.90;;;33.51;36.51;95035.59;5068127;28;20199;-58
2023/08/18 08:03:33;;;;;;;10.07;4.55;;;32.70;56.50;;;33.71;36.57;95052.91;5070894;28;20220;-59
2023/08/18 08:06:00;;;;;;;5.93;3.85;;;32.90;56.30;;;33.91;35.56;95039.19;5068570;28;20762;-60
2023/08/18 08:08:27;;;;;;;4.38;3.45;;;33.10;55.20;;;34.05;35.28;95052.19;5073823;28;20289;-59
2023/08/18 08:10:54;;;;;;;8.75;3.33;;;33.20;54.50;;;34.21;35.41;95053.69;5072199;28;20236;-60
2023/08/18 08:13:22;;;;;;;12.00;3.35;;;33.40;54.50;;;34.40;35.31;95042.09;5074157;28;20247;-61
2023/08/18 08:15:49;;;;;;;7.13;3.83;;;33.60;54.10;;;34.62;33.85;95042.41;5083077;28;20306;-59
2023/08/18 08:18:18;;;;;;;5.82;3.67;;;33.80;53.30;;;34.84;33.40;95035.69;5073763;28;20251;-58
2023/08/18 08:20:45;;;;;;;4.50;3.63;;;34.00;52.30;;;34.97;34.14;95031.47;5070392;28;20228;-59
2023/08/18 08:23:12;;;;;;;4.63;3.60;;;34.20;52.90;;;35.08;33.61;95038.44;5070127;28;20227;-59
2023/08/18 08:25:40;;;;;;;13.93;3.92;;;34.30;51.90;;;35.21;33.08;95036.91;5080263;28;20264;-59
2023/08/18 08:28:08;;;;;;;10.82;3.35;;;34.40;51.70;;;35.33;33.21;95034.59;5076677;28;20236;-59
2023/08/18 08:30:35;;;;;;;5.35;3.63;;;34.50;51.20;;;35.33;32.71;95037.31;5081828;28;20192;-59
2023/08/18 08:33:03;;;;;;;9.77;3.60;;;34.60;50.90;;;35.31;32.44;95025.88;5073880;28;20222;-59
2023/08/18 08:35:32;;;;;;;22.48;4.13;;;34.60;51.00;;;35.42;33.09;95023.81;5075378;28;20366;-60
2023/08/18 08:37:59;;;;;;;5.50;3.75;;;34.60;50.50;;;35.51;31.49;95021.25;5076300;28;20223;-59
2023/08/18 08:40:27;;;;;;;6.43;3.50;;;34.70;50.00;;;35.64;32.64;95023.22;5084674;28;20200;-59
2023/08/18 08:42:56;;;;;;;4.20;3.53;;;34.80;50.10;;;35.76;31.47;95019.22;5080243;28;20281;-59
2023/08/18 08:45:24;;;;;;;4.43;3.55;;;34.90;49.50;;;35.84;31.42;95027.63;5080774;28;20203;-58
2023/08/18 08:47:51;;;;;;;9.10;3.65;;;35.00;49.40;;;35.98;31.25;95019.47;5075647;28;20222;-60
2023/08/18 08:50:19;;;;;;;3.50;3.20;;;35.10;48.80;;;36.04;31.83;95014.75;5078259;28;20200;-59
2023/08/18 08:52:51;;;;;;;7.40;3.28;;;35.20;48.90;;;36.19;31.34;95011.75;5073024;28;20227;-58
2023/08/18 08:55:21;;;;;;;7.05;3.33;;;35.40;49.00;;;36.48;30.78;95024.44;5074233;28;20188;-57
2023/08/18 08:57:48;;;;;;;8.60;2.58;;;35.60;48.70;;;36.66;30.49;95020.00;5081505;28;20222;-60
2023/08/18 09:00:16;;;;;;;8.88;3.28;;;35.80;47.50;;;36.81;29.94;95031.81;5077281;28;20201;-59
2023/08/18 09:02:44;;;;;;;5.55;3.33;;;35.90;47.20;;;36.90;29.54;95016.28;5077290;28;20192;-59
2023/08/18 09:05:11;;;;;;;4.05;2.88;;;36.00;46.60;;;36.90;29.50;95008.88;5087081;28;20463;-61
2023/08/18 09:07:39;;;;;;;6.15;3.38;;;36.10;46.60;;;37.00;29.69;95002.41;5085242;28;20221;-59
2023/08/18 09:10:09;;;;;;;12.52;3.30;;;36.10;46.50;;;37.13;29.09;95012.53;5084081;28;20195;-60
2023/08/18 09:12:36;;;;;;;5.00;2.75;;;36.20;46.40;;;37.03;29.29;95004.53;5080924;28;20232;-59
2023/08/18 09:15:04;;;;;;;3.10;2.90;;;36.20;46.00;;;36.84;29.38;95015.59;5072520;28;20187;-60
2023/08/18 09:17:31;;;;;;;6.97;3.00;;;36.10;45.70;;;36.66;29.67;95006.31;5077412;28;20195;-59
2023/08/18 09:19:59;;;;;;;5.78;3.03;;;36.00;46.10;;;36.58;30.41;95007.00;5081623;28;20212;-58
2023/08/18 09:22:26;;;;;;;3.80;2.85;;;35.90;47.30;;;36.61;30.16;94996.25;5076441;28;20204;-58
2023/08/18 09:24:53;;;;;;;3.67;3.47;;;35.80;46.80;;;36.76;29.78;94992.44;5075893;28;20197;-59
2023/08/18 09:27:22;;;;;;;6.00;2.95;;;35.90;46.50;;;36.99;30.22;94995.28;5076494;28;20613;-60
2023/08/18 09:29:50;;;;;;;9.85;3.25;;;36.10;47.00;;;37.22;29.32;95009.09;5078912;28;21309;-59
2023/08/18 09:32:17;;;;;;;15.05;2.88;;;36.20;45.20;;;37.13;29.32;95009.78;5071531;28;20293;-59
2023/08/18 09:34:45;;;;;;;5.95;2.63;;;36.30;45.30;;;36.94;29.56;94995.38;5078330;28;20276;-59
2023/08/18 09:37:12;;;;;;;6.25;3.15;;;36.20;45.60;;;36.91;29.68;95001.47;5078161;28;20299;-60
2023/08/18 09:39:39;;;;;;;6.78;2.80;;;36.10;46.00;;;37.06;29.55;94998.44;5075847;28;20220;-58
2023/08/18 09:42:07;;;;;;;2.47;2.30;;;36.20;46.10;;;37.19;29.69;94996.78;5071599;28;20212;-59
2023/08/18 09:44:35;;;;;;;4.40;2.80;;;36.30;45.90;;;37.33;28.35;94999.56;5077880;28;20220;-58
2023/08/18 09:47:05;;;;;;;8.68;3.58;;;36.40;44.50;;;37.42;28.82;95002.38;5068215;28;20200;-60
2023/08/18 09:49:36;;;;;;;6.68;3.10;;;36.50;45.10;;;37.44;28.72;94995.44;5074690;28;20223;-60
2023/08/18 09:52:04;;;;;;;2.70;2.55;;;36.50;44.70;;;37.41;28.41;94995.25;5070192;28;20303;-59
2023/08/18 09:54:37;;;;;;;5.00;3.45;;;36.50;43.80;;;37.22;27.88;95006.34;5074753;28;20315;-59
2023/08/18 09:57:08;;;;;;;10.63;2.67;;;36.40;43.40;;;36.92;28.35;95008.56;5066114;28;20284;-58
2023/08/18 09:59:43;;;;;;;11.93;2.95;;;36.20;43.70;;;36.62;28.71;95018.97;5070162;28;20227;-58
2023/08/18 10:02:11;;;;;;;4.35;3.58;;;35.90;43.80;;;36.23;28.35;94992.78;5077590;28;20299;-59
2023/08/18 10:04:39;;;;;;;3.88;3.13;;;35.60;44.00;;;35.94;28.92;94985.59;5075850;28;20228;-59
2023/08/18 10:07:07;;;;;;;13.32;2.72;;;35.30;44.60;;;35.78;29.31;94995.16;5084424;28;20260;-58
2023/08/18 10:09:35;;;;;;;6.30;2.50;;;35.10;45.00;;;35.61;29.43;94985.50;5079054;28;20262;-58
2023/08/18 10:12:03;;;;;;;4.55;3.25;;;34.90;45.40;;;35.58;29.66;94994.31;5074292;28;20223;-58
2023/08/18 10:14:31;;;;;;;5.60;3.08;;;34.90;45.60;;;35.61;30.29;94981.97;5076315;28;20232;-58
2023/08/18 10:16:59;;;;;;;6.75;3.30;;;34.80;45.80;;;35.69;29.77;94994.97;5079801;28;20186;-58
2023/08/18 10:19:46;;;;;;;18.27;3.35;;;34.90;45.90;;;35.77;30.04;94990.78;5076665;28;20227;-61